PWSweather.com
Personal Weather Stations
Station Observations
948974
Valtournenche, AostaIT 11028

ValtournencheAostaIT 11028

Lat: 45.877222, Lon: 7.625556

Elevation: 5085.3018

Station Type: PCE-FWS 20

http://www.cdso.it

High Low Average
Temperature 53.8°F12.1°C 29.7°F-1.3°C 42.2°F5.7°C
Dew Point 35.7°F2.1°C -0.1°F-17.8°C 24.9°F-3.9°C
Winds 15.0 mph 24.1 kmh Calm Calm 4.0 mph NW6.4 kmh NW
Wind Gusts 20.0 mph32.2 kmh -- 6.0 mph9.7 kmh
Humidity 97% 21% 55%
Pressure 30.07 in1018.3 mb 29.76 in1007.8 mb -
Precipitation 0.00 in0.0 mm - -
Hour Temp Dew Point Humidity Winds Wind Gusts Pressure Precip Precip Rate Daily Precip Total
12:12 AM 36.5°F2.5°C 35.7°F2.1°C 97% 5.0 mph NW8.0 kmh NW 8.0 mph12.9 kmh 30.04 in1017.3 mb 0.00 in0.0 mm 0.00 in0.0 mm 0.00 in0.0 mm
12:33 AM 36.1°F2.3°C 35.4°F1.9°C 97% 7.0 mph NW11.3 kmh NW 9.0 mph14.5 kmh 30.04 in1017.3 mb 0.00 in0.0 mm 0.00 in0.0 mm 0.00 in0.0 mm
12:54 AM 36.0°F2.2°C 35.2°F1.8°C 97% 5.0 mph NW8.0 kmh NW 8.0 mph12.9 kmh 30.03 in1016.9 mb 0.00 in0.0 mm 0.00 in0.0 mm 0.00 in0.0 mm
01:15 AM 35.4°F1.9°C 34.7°F1.5°C 97% 3.0 mph NW4.8 kmh NW 5.0 mph8.0 kmh 30.03 in1016.9 mb 0.00 in0.0 mm 0.00 in0.0 mm 0.00 in0.0 mm
01:36 AM 35.8°F2.1°C 34.5°F1.4°C 95% 6.0 mph NW9.7 kmh NW 8.0 mph12.9 kmh 30.02 in1016.6 mb 0.00 in0.0 mm 0.00 in0.0 mm 0.00 in0.0 mm
01:57 AM 35.1°F1.7°C 33.8°F1.0°C 95% 3.0 mph NW4.8 kmh NW 5.0 mph8.0 kmh 30.02 in1016.6 mb 0.00 in0.0 mm 0.00 in0.0 mm 0.00 in0.0 mm
02:18 AM 35.2°F1.8°C 33.7°F0.9°C 94% 2.0 mph NW3.2 kmh NW 4.0 mph6.4 kmh 30.02 in1016.6 mb 0.00 in0.0 mm 0.00 in0.0 mm 0.00 in0.0 mm
02:39 AM 34.5°F1.4°C 31.9°F-0.1°C 90% 3.0 mph NW4.8 kmh NW 6.0 mph9.7 kmh 30.01 in1016.3 mb 0.00 in0.0 mm 0.00 in0.0 mm 0.00 in0.0 mm
03:00 AM 36.3°F2.4°C 14.3°F-9.8°C 40% 9.0 mph 14.5 kmh 15.0 mph24.1 kmh 30.00 in1015.9 mb 0.00 in0.0 mm 0.00 in0.0 mm 0.00 in0.0 mm
03:21 AM 36.7°F2.6°C 5.9°F-14.5°C 27% 15.0 mph NW24.1 kmh NW 20.0 mph32.2 kmh 30.01 in1016.3 mb 0.00 in0.0 mm 0.00 in0.0 mm 0.00 in0.0 mm
03:42 AM 36.7°F2.6°C 3.3°F-15.9°C 24% 9.0 mph NW14.5 kmh NW 15.0 mph24.1 kmh 30.00 in1015.9 mb 0.00 in0.0 mm 0.00 in0.0 mm 0.00 in0.0 mm
04:03 AM 36.0°F2.2°C -0.1°F-17.8°C 21% 5.0 mph NW8.0 kmh NW 10.0 mph16.1 kmh 30.02 in1016.6 mb 0.00 in0.0 mm 0.00 in0.0 mm 0.00 in0.0 mm
04:24 AM 34.3°F1.3°C 16.7°F-8.5°C 48% 2.0 mph NW3.2 kmh NW 3.0 mph4.8 kmh 30.03 in1016.9 mb 0.00 in0.0 mm 0.00 in0.0 mm 0.00 in0.0 mm
04:45 AM 33.6°F0.9°C 16.0°F-8.9°C 48% 2.0 mph NW3.2 kmh NW 4.0 mph6.4 kmh 30.02 in1016.6 mb 0.00 in0.0 mm 0.00 in0.0 mm 0.00 in0.0 mm
05:06 AM 31.8°F-0.1°C 21.4°F-5.9°C 65% 1.0 mph NW1.6 kmh NW 2.0 mph3.2 kmh 30.03 in1016.9 mb 0.00 in0.0 mm 0.00 in0.0 mm 0.00 in0.0 mm
05:27 AM 30.6°F-0.8°C 24.8°F-4.0°C 79% 1.0 mph NW1.6 kmh NW 2.0 mph3.2 kmh 30.05 in1017.6 mb 0.00 in0.0 mm 0.00 in0.0 mm 0.00 in0.0 mm
05:48 AM 29.7°F-1.3°C 25.7°F-3.5°C 85% Calm Calm -- 30.07 in1018.3 mb 0.00 in0.0 mm 0.00 in0.0 mm 0.00 in0.0 mm
06:09 AM 30.6°F-0.8°C 26.3°F-3.2°C 84% 4.0 mph NW6.4 kmh NW 5.0 mph8.0 kmh 30.06 in1017.9 mb 0.00 in0.0 mm 0.00 in0.0 mm 0.00 in0.0 mm
06:30 AM 32.2°F0.1°C 17.0°F-8.3°C 53% 3.0 mph NW4.8 kmh NW 4.0 mph6.4 kmh 30.04 in1017.3 mb 0.00 in0.0 mm 0.00 in0.0 mm 0.00 in0.0 mm
06:51 AM 32.4°F0.2°C 13.4°F-10.3°C 45% 2.0 mph NW3.2 kmh NW 2.0 mph3.2 kmh 30.04 in1017.3 mb 0.00 in0.0 mm 0.00 in0.0 mm 0.00 in0.0 mm
07:12 AM 32.4°F0.2°C 13.4°F-10.3°C 45% 2.0 mph NW3.2 kmh NW 3.0 mph4.8 kmh 30.04 in1017.3 mb 0.00 in0.0 mm 0.00 in0.0 mm 0.00 in0.0 mm
07:33 AM 38.1°F3.4°C 17.6°F-8.0°C 43% 2.0 mph NW3.2 kmh NW 3.0 mph4.8 kmh 29.97 in1014.9 mb 0.00 in0.0 mm 0.00 in0.0 mm 0.00 in0.0 mm
07:54 AM 42.3°F5.7°C 9.9°F-12.3°C 26% 2.0 mph NW3.2 kmh NW 2.0 mph3.2 kmh 29.91 in1012.9 mb 0.00 in0.0 mm 0.00 in0.0 mm 0.00 in0.0 mm
08:15 AM 42.4°F5.8°C 7.3°F-13.7°C 23% 4.0 mph NW6.4 kmh NW 5.0 mph8.0 kmh 29.91 in1012.9 mb 0.00 in0.0 mm 0.00 in0.0 mm 0.00 in0.0 mm
08:36 AM 42.4°F5.8°C 9.1°F-12.7°C 25% 4.0 mph NW6.4 kmh NW 4.0 mph6.4 kmh 29.91 in1012.9 mb 0.00 in0.0 mm 0.00 in0.0 mm 0.00 in0.0 mm
08:57 AM 41.9°F5.5°C 10.4°F-12.0°C 27% 2.0 mph NW3.2 kmh NW 4.0 mph6.4 kmh 29.92 in1013.2 mb 0.00 in0.0 mm 0.00 in0.0 mm 0.00 in0.0 mm
09:18 AM 43.7°F6.5°C 14.3°F-9.8°C 30% 3.0 mph NW4.8 kmh NW 4.0 mph6.4 kmh 29.90 in1012.5 mb 0.00 in0.0 mm 0.00 in0.0 mm 0.00 in0.0 mm
09:39 AM 45.9°F7.7°C 17.7°F-7.9°C 32% 7.0 mph NW11.3 kmh NW 9.0 mph14.5 kmh 29.86 in1011.2 mb 0.00 in0.0 mm 0.00 in0.0 mm 0.00 in0.0 mm
10:00 AM 44.6°F7.0°C 18.7°F-7.4°C 35% 6.0 mph NW9.7 kmh NW 8.0 mph12.9 kmh 29.88 in1011.9 mb 0.00 in0.0 mm 0.00 in0.0 mm 0.00 in0.0 mm
10:21 AM 44.8°F7.1°C 21.4°F-5.9°C 39% 3.0 mph NW4.8 kmh NW 4.0 mph6.4 kmh 29.88 in1011.9 mb 0.00 in0.0 mm 0.00 in0.0 mm 0.00 in0.0 mm
10:42 AM 45.1°F7.3°C 24.5°F-4.2°C 44% 5.0 mph NW8.0 kmh NW 8.0 mph12.9 kmh 29.88 in1011.9 mb 0.00 in0.0 mm 0.00 in0.0 mm 0.00 in0.0 mm
11:03 AM 46.2°F7.9°C 24.4°F-4.2°C 42% 6.0 mph W9.7 kmh W 9.0 mph14.5 kmh 29.87 in1011.5 mb 0.00 in0.0 mm 0.00 in0.0 mm 0.00 in0.0 mm
11:24 AM 47.5°F8.6°C 23.2°F-4.9°C 38% 3.0 mph W4.8 kmh W 4.0 mph6.4 kmh 29.85 in1010.8 mb 0.00 in0.0 mm 0.00 in0.0 mm 0.00 in0.0 mm
11:45 AM 49.6°F9.8°C 23.1°F-4.9°C 35% 5.0 mph W8.0 kmh W 8.0 mph12.9 kmh 29.82 in1009.8 mb 0.00 in0.0 mm 0.00 in0.0 mm 0.00 in0.0 mm
12:06 PM 51.3°F10.7°C 23.9°F-4.5°C 34% 4.0 mph W6.4 kmh W 7.0 mph11.3 kmh 29.79 in1008.8 mb 0.00 in0.0 mm 0.00 in0.0 mm 0.00 in0.0 mm
12:27 PM 52.5°F11.4°C 24.3°F-4.3°C 33% 6.0 mph W9.7 kmh W 9.0 mph14.5 kmh 29.77 in1008.1 mb 0.00 in0.0 mm 0.00 in0.0 mm 0.00 in0.0 mm
12:48 PM 52.3°F11.3°C 24.1°F-4.4°C 33% 5.0 mph SW8.0 kmh SW 8.0 mph12.9 kmh 29.77 in1008.1 mb 0.00 in0.0 mm 0.00 in0.0 mm 0.00 in0.0 mm
01:09 PM 53.6°F12.0°C 25.2°F-3.8°C 33% 6.0 mph NW9.7 kmh NW 11.0 mph17.7 kmh 29.76 in1007.8 mb 0.00 in0.0 mm 0.00 in0.0 mm 0.00 in0.0 mm
01:30 PM 53.2°F11.8°C 26.3°F-3.2°C 35% 5.0 mph NW8.0 kmh NW 8.0 mph12.9 kmh 29.76 in1007.8 mb 0.00 in0.0 mm 0.00 in0.0 mm 0.00 in0.0 mm
01:51 PM 52.0°F11.1°C 25.2°F-3.8°C 35% 11.0 mph NW17.7 kmh NW 13.0 mph20.9 kmh 29.78 in1008.5 mb 0.00 in0.0 mm 0.00 in0.0 mm 0.00 in0.0 mm
02:12 PM 53.8°F12.1°C 25.4°F-3.7°C 33% 7.0 mph NW11.3 kmh NW 11.0 mph17.7 kmh 29.76 in1007.8 mb 0.00 in0.0 mm 0.00 in0.0 mm 0.00 in0.0 mm
02:33 PM 53.1°F11.7°C 26.1°F-3.3°C 35% 10.0 mph NW16.1 kmh NW 14.0 mph22.5 kmh 29.76 in1007.8 mb 0.00 in0.0 mm 0.00 in0.0 mm 0.00 in0.0 mm
02:54 PM 53.2°F11.8°C 26.3°F-3.2°C 35% 6.0 mph NW9.7 kmh NW 9.0 mph14.5 kmh 29.77 in1008.1 mb 0.00 in0.0 mm 0.00 in0.0 mm 0.00 in0.0 mm
03:21 PM 53.5°F11.9°C 27.4°F-2.6°C 36% 8.0 mph NW12.9 kmh NW 15.0 mph24.1 kmh 29.76 in1007.8 mb 0.00 in0.0 mm 0.00 in0.0 mm 0.00 in0.0 mm
03:42 PM 52.8°F11.6°C 30.0°F-1.1°C 41% 6.0 mph NW9.7 kmh NW 14.0 mph22.5 kmh 29.77 in1008.1 mb 0.00 in0.0 mm 0.00 in0.0 mm 0.00 in0.0 mm
04:03 PM 53.0°F11.7°C 30.9°F-0.6°C 43% 6.0 mph NW9.7 kmh NW 13.0 mph20.9 kmh 29.78 in1008.5 mb 0.00 in0.0 mm 0.00 in0.0 mm 0.00 in0.0 mm
04:21 PM 52.5°F11.4°C 31.5°F-0.3°C 44% 8.0 mph NW12.9 kmh NW 13.0 mph20.9 kmh 29.78 in1008.5 mb 0.00 in0.0 mm 0.00 in0.0 mm 0.00 in0.0 mm
04:42 PM 52.1°F11.2°C 31.8°F-0.1°C 46% 6.0 mph NW9.7 kmh NW 9.0 mph14.5 kmh 29.79 in1008.8 mb 0.00 in0.0 mm 0.00 in0.0 mm 0.00 in0.0 mm
05:21 PM 50.7°F10.4°C 33.4°F0.8°C 51% 5.0 mph NW8.0 kmh NW 8.0 mph12.9 kmh 29.83 in1010.2 mb 0.00 in0.0 mm 0.00 in0.0 mm 0.00 in0.0 mm
05:42 PM 50.0°F10.0°C 32.5°F0.3°C 51% 2.0 mph NW3.2 kmh NW 5.0 mph8.0 kmh 29.84 in1010.5 mb 0.00 in0.0 mm 0.00 in0.0 mm 0.00 in0.0 mm
06:21 PM 47.3°F8.5°C 33.0°F0.6°C 57% 2.0 mph NW3.2 kmh NW 5.0 mph8.0 kmh 29.85 in1010.8 mb 0.00 in0.0 mm 0.00 in0.0 mm 0.00 in0.0 mm
06:42 PM 44.9°F7.2°C 32.4°F0.2°C 61% 3.0 mph NW4.8 kmh NW 7.0 mph11.3 kmh 29.88 in1011.9 mb 0.00 in0.0 mm 0.00 in0.0 mm 0.00 in0.0 mm
07:03 PM 43.7°F6.5°C 32.4°F0.2°C 64% Calm Calm 2.0 mph3.2 kmh 29.90 in1012.5 mb 0.00 in0.0 mm 0.00 in0.0 mm 0.00 in0.0 mm
07:21 PM 42.9°F6.1°C 32.3°F0.2°C 66% 1.0 mph NW1.6 kmh NW 2.0 mph3.2 kmh 29.92 in1013.2 mb 0.00 in0.0 mm 0.00 in0.0 mm 0.00 in0.0 mm
07:42 PM 42.4°F5.8°C 32.2°F0.1°C 67% Calm Calm 3.0 mph4.8 kmh 29.93 in1013.5 mb 0.00 in0.0 mm 0.00 in0.0 mm 0.00 in0.0 mm
08:03 PM 41.6°F5.3°C 33.0°F0.6°C 71% 1.0 mph NW1.6 kmh NW 3.0 mph4.8 kmh 29.94 in1013.9 mb 0.00 in0.0 mm 0.00 in0.0 mm 0.00 in0.0 mm
08:21 PM 41.4°F5.2°C 33.0°F0.6°C 72% 2.0 mph NW3.2 kmh NW 3.0 mph4.8 kmh 29.95 in1014.2 mb 0.00 in0.0 mm 0.00 in0.0 mm 0.00 in0.0 mm
08:42 PM 40.9°F4.9°C 32.5°F0.3°C 72% Calm Calm 2.0 mph3.2 kmh 29.96 in1014.6 mb 0.00 in0.0 mm 0.00 in0.0 mm 0.00 in0.0 mm
09:03 PM 39.2°F4.0°C 33.6°F0.9°C 80% 1.0 mph NW1.6 kmh NW 3.0 mph4.8 kmh 29.99 in1015.6 mb 0.00 in0.0 mm 0.00 in0.0 mm 0.00 in0.0 mm
09:21 PM 37.4°F3.0°C 33.5°F0.8°C 86% Calm Calm -- 30.02 in1016.6 mb 0.00 in0.0 mm 0.00 in0.0 mm 0.00 in0.0 mm
09:42 PM 36.7°F2.6°C 32.2°F0.1°C 84% Calm Calm 2.0 mph3.2 kmh 30.04 in1017.3 mb 0.00 in0.0 mm 0.00 in0.0 mm 0.00 in0.0 mm
10:03 PM 36.2°F2.3°C 32.1°F0.1°C 85% Calm Calm 2.0 mph3.2 kmh 30.05 in1017.6 mb 0.00 in0.0 mm 0.00 in0.0 mm 0.00 in0.0 mm
10:21 PM 36.1°F2.3°C 32.2°F0.1°C 86% 1.0 mph NW1.6 kmh NW 3.0 mph4.8 kmh 30.05 in1017.6 mb 0.00 in0.0 mm 0.00 in0.0 mm 0.00 in0.0 mm
10:42 PM 35.6°F2.0°C 31.8°F-0.1°C 86% Calm Calm 2.0 mph3.2 kmh 30.05 in1017.6 mb 0.00 in0.0 mm 0.00 in0.0 mm 0.00 in0.0 mm
10:57 PM 36.5°F2.5°C 32.1°F0.1°C 84% 2.0 mph NW3.2 kmh NW 3.0 mph4.8 kmh 30.04 in1017.3 mb 0.00 in0.0 mm 0.00 in0.0 mm 0.00 in0.0 mm
11:18 PM 36.3°F2.4°C 30.4°F-0.9°C 79% Calm Calm 1.0 mph1.6 kmh 30.04 in1017.3 mb 0.00 in0.0 mm 0.00 in0.0 mm 0.00 in0.0 mm
11:39 PM 35.4°F1.9°C 29.9°F-1.2°C 80% Calm Calm -- 30.05 in1017.6 mb 0.00 in0.0 mm 0.00 in0.0 mm 0.00 in0.0 mm